Time;durP1;ratioP1;P1;durP2;ratioP2;P2;SDS_P1;SDS_P2;PMS_P1;PMS_P2;Temp;Humidity;BMP_temperature;BMP_pressure;BME280_temperature;BME280_humidity;BME280_pressure;Samples;Min_cycle;Max_cycle;Signal;HPM_P1;HPM_P2
2023/05/22 00:00:17;;;;;;;5.93;5.30;;;15.20;99.90;;;;;;5238912;28;20039;-68
2023/05/22 00:02:49;;;;;;;4.75;4.18;;;15.20;99.90;;;;;;5207134;28;20040;-65
2023/05/22 00:05:20;;;;;;;5.22;4.43;;;15.10;99.90;;;;;;5220157;28;20083;-64
2023/05/22 00:07:51;;;;;;;5.35;4.68;;;15.00;99.90;;;;;;5215589;28;20023;-63
2023/05/22 00:10:23;;;;;;;6.75;4.70;;;15.00;99.90;;;;;;5215923;28;20028;-65
2023/05/22 00:12:58;;;;;;;5.53;3.92;;;14.90;99.90;;;;;;5213269;28;20050;-68
2023/05/22 00:15:29;;;;;;;4.88;4.10;;;14.80;99.90;;;;;;5205303;28;20024;-66
2023/05/22 00:18:12;;;;;;;6.35;4.40;;;14.80;99.90;;;;;;5199070;28;20037;-66
2023/05/22 00:20:46;;;;;;;5.00;4.40;;;14.80;99.90;;;;;;5213353;28;20256;-67
2023/05/22 00:23:23;;;;;;;5.83;4.50;;;14.70;99.90;;;;;;5195082;28;20029;-66
2023/05/22 00:25:59;;;;;;;4.85;4.05;;;14.70;99.90;;;;;;5213256;28;20257;-66
2023/05/22 00:28:35;;;;;;;4.85;3.88;;;14.70;99.90;;;;;;5199006;28;20039;-66
2023/05/22 00:31:06;;;;;;;5.70;4.10;;;14.60;99.90;;;;;;5229151;28;20469;-67
2023/05/22 00:33:38;;;;;;;6.50;4.53;;;14.60;99.90;;;;;;5210425;28;20357;-66
2023/05/22 00:36:09;;;;;;;6.55;4.75;;;14.60;99.90;;;;;;5232599;28;20037;-66
2023/05/22 00:38:43;;;;;;;5.78;4.60;;;14.50;99.90;;;;;;5221727;28;20047;-66
2023/05/22 00:41:18;;;;;;;4.43;4.03;;;14.40;99.90;;;;;;5213936;28;20041;-66
2023/05/22 00:43:50;;;;;;;4.38;3.28;;;14.30;99.90;;;;;;5225658;28;20036;-66
2023/05/22 00:46:23;;;;;;;5.13;4.35;;;14.30;99.90;;;;;;5196630;28;20106;-67
2023/05/22 00:48:54;;;;;;;5.68;4.47;;;14.30;99.90;;;;;;5215423;28;20028;-66
2023/05/22 00:51:26;;;;;;;5.68;4.35;;;14.30;99.90;;;;;;5232887;28;20027;-64
2023/05/22 00:54:06;;;;;;;4.45;3.60;;;14.30;99.90;;;;;;5216868;28;20024;-64
2023/05/22 00:56:44;;;;;;;4.53;3.70;;;14.20;99.90;;;;;;5216007;28;20040;-66
2023/05/22 00:59:17;;;;;;;4.88;3.90;;;14.20;99.90;;;;;;5216040;28;20040;-65
2023/05/22 01:01:51;;;;;;;5.80;4.60;;;14.10;99.90;;;;;;5276262;22;20045;-67
2023/05/22 01:04:25;;;;;;;4.93;4.18;;;14.20;99.90;;;;;;5189627;28;20035;-68
2023/05/22 01:06:56;;;;;;;5.45;3.72;;;14.10;99.90;;;;;;5211216;28;20029;-64
2023/05/22 01:09:32;;;;;;;5.88;3.80;;;14.10;99.90;;;;;;5215019;28;20039;-65
2023/05/22 01:12:06;;;;;;;4.68;4.13;;;14.10;99.90;;;;;;5213425;28;20241;-66
2023/05/22 01:14:56;;;;;;;;;;;14.00;99.90;;;;;;5184961;28;20029;-66
2023/05/22 01:17:48;;;;;;;4.50;3.65;;;13.90;99.90;;;;;;5226261;28;20213;-64
2023/05/22 01:20:56;;;;;;;5.60;4.53;;;13.90;99.90;;;;;;5195058;28;20017;-66
2023/05/22 01:24:05;;;;;;;6.15;4.20;;;13.90;99.90;;;;;;5190491;28;20344;-67
2023/05/22 01:27:06;;;;;;;6.70;3.83;;;13.90;99.90;;;;;;5202338;28;20031;-64
2023/05/22 01:29:49;;;;;;;5.47;4.57;;;13.90;99.90;;;;;;5203261;28;20033;-66
2023/05/22 01:32:24;;;;;;;4.00;3.55;;;13.90;99.90;;;;;;5202874;28;20048;-65
2023/05/22 01:34:59;;;;;;;4.95;4.28;;;14.00;99.90;;;;;;5215515;28;20033;-65
2023/05/22 01:37:32;;;;;;;5.32;4.47;;;13.90;99.90;;;;;;5214585;28;20043;-63
2023/05/22 01:40:06;;;;;;;5.78;4.88;;;13.90;99.90;;;;;;5215364;28;20447;-66
2023/05/22 01:42:40;;;;;;;5.53;4.35;;;13.90;99.90;;;;;;5212011;28;20037;-65
2023/05/22 01:45:13;;;;;;;4.75;4.13;;;13.80;99.90;;;;;;5212340;28;20033;-63
2023/05/22 01:47:47;;;;;;;4.47;3.92;;;13.80;99.90;;;;;;5193342;28;20037;-65
2023/05/22 01:50:28;;;;;;;5.05;4.22;;;13.80;99.90;;;;;;5198689;28;20577;-68
2023/05/22 01:52:59;;;;;;;5.13;4.07;;;13.80;99.90;;;;;;5211863;28;20233;-65
2023/05/22 01:55:44;;;;;;;5.57;4.32;;;13.80;99.90;;;;;;5198522;28;20037;-64
2023/05/22 01:58:36;;;;;;;5.13;3.90;;;13.70;99.90;;;;;;5217760;28;20035;-66
2023/05/22 02:01:13;;;;;;;5.15;4.15;;;13.70;99.90;;;;;;5188062;28;20037;-65
2023/05/22 02:03:50;;;;;;;4.68;4.00;;;13.70;99.90;;;;;;5213936;28;20488;-66
2023/05/22 02:06:24;;;;;;;4.38;3.80;;;13.70;99.90;;;;;;5203486;28;20466;-67
2023/05/22 02:08:56;;;;;;;5.78;4.53;;;13.70;99.90;;;;;;5213123;28;20039;-66
2023/05/22 02:11:29;;;;;;;5.45;4.65;;;13.70;99.90;;;;;;5228268;28;20241;-64
2023/05/22 02:14:08;;;;;;;4.33;3.87;;;13.60;99.90;;;;;;5206430;28;20049;-66
2023/05/22 02:16:41;;;;;;;5.68;5.00;;;13.60;99.90;;;;;;5176641;28;20039;-65
2023/05/22 02:19:23;;;;;;;7.50;4.60;;;13.60;99.90;;;;;;5226433;28;20037;-65
2023/05/22 02:22:00;;;;;;;5.55;4.13;;;13.70;99.90;;;;;;5215059;28;20032;-67
2023/05/22 02:24:38;;;;;;;5.78;4.30;;;13.60;99.90;;;;;;5209853;28;20253;-67
2023/05/22 02:27:15;;;;;;;4.97;4.50;;;13.60;99.90;;;;;;5212950;28;20037;-64
2023/05/22 02:29:54;;;;;;;6.80;4.55;;;13.60;99.90;;;;;;5221037;28;20048;-65
2023/05/22 02:32:32;;;;;;;6.30;4.45;;;13.60;99.90;;;;;;5189380;28;20371;-66
2023/05/22 02:35:09;;;;;;;6.25;4.95;;;13.60;99.90;;;;;;5182961;28;20040;-66
2023/05/22 02:37:46;;;;;;;6.10;4.40;;;13.60;99.90;;;;;;5214599;28;20539;-66
2023/05/22 02:40:22;;;;;;;4.72;4.00;;;13.60;99.90;;;;;;5213045;28;20037;-64
2023/05/22 02:42:56;;;;;;;5.43;4.47;;;13.60;99.90;;;;;;5195624;28;20029;-66
2023/05/22 02:45:35;;;;;;;6.88;4.60;;;13.60;99.90;;;;;;5194363;28;20028;-66
2023/05/22 02:48:07;;;;;;;4.75;4.00;;;13.50;99.90;;;;;;5194952;28;20025;-64
2023/05/22 02:50:43;;;;;;;7.40;4.75;;;13.50;99.90;;;;;;5228155;28;20028;-66
2023/05/22 02:53:16;;;;;;;6.68;4.20;;;13.50;99.90;;;;;;5195573;28;20249;-65
2023/05/22 02:55:47;;;;;;;5.05;4.55;;;13.50;99.90;;;;;;5211071;28;20033;-69
2023/05/22 02:58:22;;;;;;;5.05;4.38;;;13.50;99.90;;;;;;5213509;28;20443;-63
2023/05/22 03:00:53;;;;;;;;;;;13.50;99.90;;;;;;5208893;28;20043;-65
2023/05/22 03:03:28;;;;;;;5.03;4.05;;;13.40;99.90;;;;;;5211827;28;19915;-66
2023/05/22 03:06:03;;;;;;;5.15;3.95;;;13.40;99.90;;;;;;5198900;28;20613;-66
2023/05/22 03:08:42;;;;;;;6.30;4.53;;;13.50;99.90;;;;;;5179415;28;20047;-66
2023/05/22 03:11:14;;;;;;;4.82;4.32;;;13.40;99.90;;;;;;5202807;28;20131;-66
2023/05/22 03:13:45;;;;;;;7.32;4.95;;;13.30;99.90;;;;;;5214305;28;20593;-65
2023/05/22 03:16:17;;;;;;;7.60;4.07;;;13.30;99.90;;;;;;5193257;28;20039;-65
2023/05/22 03:19:08;;;;;;;4.38;3.92;;;13.30;99.90;;;;;;5204076;28;20040;-67
2023/05/22 03:21:40;;;;;;;6.07;4.55;;;13.20;99.90;;;;;;5230808;28;20051;-64
2023/05/22 03:24:15;;;;;;;5.32;4.60;;;13.20;99.90;;;;;;5195155;28;20047;-67
2023/05/22 03:26:46;;;;;;;6.25;4.85;;;13.30;99.90;;;;;;5210872;28;20213;-68
2023/05/22 03:29:17;;;;;;;4.93;3.92;;;13.30;99.90;;;;;;5212101;28;20033;-65
2023/05/22 03:31:51;;;;;;;5.93;4.32;;;13.20;99.90;;;;;;5206591;28;20041;-64
2023/05/22 03:34:28;;;;;;;7.07;4.18;;;13.10;99.90;;;;;;5211905;28;20055;-65
2023/05/22 03:37:05;;;;;;;5.75;4.38;;;13.10;99.90;;;;;;5211758;28;20040;-65
2023/05/22 03:39:39;;;;;;;7.78;5.63;;;13.20;99.90;;;;;;5216159;28;20033;-64
2023/05/22 03:42:16;;;;;;;6.35;4.45;;;13.20;99.90;;;;;;5233240;28;20036;-66
2023/05/22 03:44:50;;;;;;;6.07;4.93;;;13.40;99.90;;;;;;5232938;28;20028;-66
2023/05/22 03:47:24;;;;;;;6.35;4.60;;;13.50;99.90;;;;;;5204782;28;20048;-67
2023/05/22 03:49:58;;;;;;;;;;;13.70;99.90;;;;;;5193972;28;20033;-66
2023/05/22 03:52:32;;;;;;;6.18;4.38;;;13.80;99.90;;;;;;5210523;28;19912;-67
2023/05/22 03:55:04;;;;;;;;;;;13.90;99.90;;;;;;5216315;28;20044;-66
2023/05/22 03:57:36;;;;;;;6.30;4.32;;;14.10;99.90;;;;;;5228990;28;20387;-65
2023/05/22 04:00:08;;;;;;;5.22;4.00;;;14.20;99.90;;;;;;5214279;28;20552;-67
2023/05/22 04:02:45;;;;;;;5.47;4.38;;;14.40;99.90;;;;;;5216776;28;20029;-67
2023/05/22 04:05:24;;;;;;;5.40;4.40;;;14.50;99.90;;;;;;5176636;28;20040;-65
2023/05/22 04:08:01;;;;;;;6.10;4.20;;;14.20;99.90;;;;;;5199440;28;20036;-67
2023/05/22 04:10:37;;;;;;;4.63;4.20;;;14.20;99.90;;;;;;5196039;28;20033;-66
2023/05/22 04:13:08;;;;;;;9.38;5.75;;;14.50;99.90;;;;;;5176615;28;20122;-66
2023/05/22 04:15:45;;;;;;;6.80;5.28;;;14.60;99.90;;;;;;5176929;28;20043;-66
2023/05/22 04:18:21;;;;;;;5.93;4.72;;;14.80;99.90;;;;;;5215742;28;20134;-67
2023/05/22 04:20:56;;;;;;;6.30;4.35;;;15.10;99.90;;;;;;5213787;28;20506;-66
2023/05/22 04:23:28;;;;;;;5.70;4.80;;;15.50;99.90;;;;;;5213797;28;20040;-67
2023/05/22 04:26:07;;;;;;;5.03;4.28;;;15.80;99.90;;;;;;5194150;28;20041;-67
2023/05/22 04:28:44;;;;;;;5.95;4.43;;;16.00;99.90;;;;;;5210313;28;20062;-65
2023/05/22 04:31:21;;;;;;;5.78;4.45;;;16.00;99.90;;;;;;5184527;28;20041;-67
2023/05/22 04:34:04;;;;;;;4.03;3.55;;;16.00;99.90;;;;;;5209603;28;20049;-65
2023/05/22 04:36:38;;;;;;;4.70;3.85;;;16.20;99.90;;;;;;5212638;28;20029;-65
2023/05/22 04:39:13;;;;;;;4.85;3.97;;;16.40;99.90;;;;;;5191044;28;20037;-67
2023/05/22 04:41:48;;;;;;;4.50;4.05;;;16.70;99.90;;;;;;5195838;28;20048;-67
2023/05/22 04:44:22;;;;;;;5.53;4.00;;;17.00;21.50;;;;;;5214493;28;20032;-69
2023/05/22 04:46:59;;;;;;;4.43;4.00;;;17.20;1.00;;;;;;5216472;28;20039;-66
2023/05/22 04:49:44;;;;;;;8.02;4.18;;;17.40;1.00;;;;;;5194005;28;20041;-66
2023/05/22 04:52:15;;;;;;;5.15;4.00;;;17.30;1.00;;;;;;5187531;28;20033;-66
2023/05/22 04:54:53;;;;;;;6.15;4.57;;;17.30;1.00;;;;;;5214001;28;20033;-66
2023/05/22 04:57:26;;;;;;;5.88;4.35;;;17.20;1.00;;;;;;5180463;28;20397;-66
2023/05/22 04:59:57;;;;;;;5.88;4.50;;;17.20;1.00;;;;;;5196780;28;20037;-67
2023/05/22 05:02:29;;;;;;;5.65;4.25;;;17.50;1.00;;;;;;5088629;28;3083067;-68
2023/05/22 05:05:03;;;;;;;6.57;4.93;;;17.70;1.00;;;;;;5210243;28;20060;-67
2023/05/22 05:07:39;;;;;;;5.10;3.70;;;17.90;1.00;;;;;;5219274;28;20459;-67
2023/05/22 05:10:15;;;;;;;5.90;4.18;;;18.20;1.00;;;;;;5215811;28;20037;-67
2023/05/22 05:12:49;;;;;;;4.20;3.35;;;18.40;1.00;;;;;;5197882;28;20041;-67
2023/05/22 05:15:22;;;;;;;5.07;4.03;;;18.60;1.00;;;;;;5196710;28;20037;-66
2023/05/22 05:17:57;;;;;;;5.63;4.10;;;19.20;1.00;;;;;;5236136;28;20032;-65
2023/05/22 05:20:30;;;;;;;4.43;3.40;;;19.60;1.00;;;;;;5228737;28;20050;-66
2023/05/22 05:23:02;;;;;;;6.57;3.95;;;20.00;1.00;;;;;;5213697;28;20043;-69
2023/05/22 05:25:37;;;;;;;5.97;4.18;;;20.30;1.00;;;;;;5218598;28;20036;-67
2023/05/22 05:28:11;;;;;;;5.90;3.90;;;20.70;1.00;;;;;;5212554;28;20041;-68
2023/05/22 05:30:45;;;;;;;;;;;21.00;1.00;;;;;;5231055;28;20028;-62
2023/05/22 05:33:18;;;;;;;4.80;3.78;;;21.20;99.90;;;;;;5214088;28;19917;-67
2023/05/22 05:35:53;;;;;;;5.15;3.83;;;21.40;99.90;;;;;;5245436;28;20036;-67
2023/05/22 05:38:26;;;;;;;4.03;3.55;;;21.60;99.90;;;;;;5190585;28;20043;-68
2023/05/22 05:40:58;;;;;;;5.25;3.42;;;21.70;99.90;;;;;;5214921;28;20063;-63
2023/05/22 05:43:32;;;;;;;5.45;3.50;;;21.30;99.90;;;;;;5214263;28;20035;-66
2023/05/22 05:46:03;;;;;;;4.97;3.70;;;20.90;99.90;;;;;;5196682;28;20033;-67
2023/05/22 05:48:34;;;;;;;3.90;3.40;;;21.10;99.90;;;;;;5202217;28;20222;-65
2023/05/22 05:51:10;;;;;;;5.18;3.47;;;20.80;99.90;;;;;;5177783;28;20039;-67
2023/05/22 05:53:44;;;;;;;4.88;3.75;;;20.90;99.90;;;;;;5210719;28;20049;-67
2023/05/22 05:56:24;;;;;;;4.32;3.17;;;21.20;99.90;;;;;;5197714;28;20041;-67
2023/05/22 05:58:55;;;;;;;3.83;3.10;;;21.40;99.90;;;;;;5194858;28;20041;-67
2023/05/22 06:01:31;;;;;;;4.13;3.70;;;22.00;99.90;;;;;;5212869;28;20367;-66
2023/05/22 06:04:04;;;;;;;4.55;3.53;;;22.50;99.90;;;;;;5212575;28;20049;-65
2023/05/22 06:06:35;;;;;;;5.97;3.67;;;22.80;99.90;;;;;;5198617;28;20048;-67
2023/05/22 06:09:07;;;;;;;6.18;3.85;;;23.10;99.90;;;;;;5194258;28;20024;-64
2023/05/22 06:11:38;;;;;;;4.95;3.50;;;23.10;99.90;;;;;;5203887;28;20038;-68
2023/05/22 06:14:11;;;;;;;4.78;4.15;;;23.20;99.90;;;;;;5201972;28;20035;-67
2023/05/22 06:16:44;;;;;;;4.28;3.38;;;23.20;99.90;;;;;;5211049;28;20043;-64
2023/05/22 06:19:15;;;;;;;4.05;3.60;;;23.60;99.90;;;;;;5185459;28;20583;-66
2023/05/22 06:21:49;;;;;;;4.13;3.17;;;23.80;99.90;;;;;;5210316;28;20033;-67
2023/05/22 06:24:20;;;;;;;5.07;3.78;;;23.90;99.90;;;;;;5206293;28;20044;-66
2023/05/22 06:26:55;;;;;;;5.65;2.78;;;24.10;99.90;;;;;;5192502;28;20474;-66
2023/05/22 06:29:29;;;;;;;4.50;3.25;;;24.20;99.90;;;;;;5213608;28;20025;-66
2023/05/22 06:32:06;;;;;;;;;;;24.70;99.90;;;;;;5179274;28;20063;-67
2023/05/22 06:34:37;;;;;;;5.28;3.13;;;25.10;99.90;;;;;;5204727;28;19921;-65
2023/05/22 06:37:12;;;;;;;5.55;4.07;;;25.10;1.00;;;;;;5209469;28;20609;-68
2023/05/22 06:39:47;;;;;;;4.05;2.90;;;24.80;1.00;;;;;;5211879;28;20324;-68
2023/05/22 06:42:24;;;;;;;4.72;2.90;;;24.50;1.00;;;;;;5176916;28;20263;-67
2023/05/22 06:45:00;;;;;;;3.72;3.08;;;24.80;1.00;;;;;;5205296;28;20037;-67
2023/05/22 06:47:34;;;;;;;5.70;3.72;;;25.10;99.90;;;;;;5179731;28;20033;-67
2023/05/22 06:50:09;;;;;;;3.30;3.00;;;25.20;99.90;;;;;;5187393;28;20032;-65
2023/05/22 06:52:41;;;;;;;4.57;3.67;;;24.90;99.90;;;;;;5207768;28;20044;-68
2023/05/22 06:55:12;;;;;;;3.45;3.10;;;24.80;99.90;;;;;;5211374;28;20531;-65
2023/05/22 06:57:46;;;;;;;3.65;3.08;;;24.70;99.90;;;;;;5192594;28;20268;-68
2023/05/22 07:00:22;;;;;;;3.25;2.95;;;24.80;99.90;;;;;;5189324;28;20116;-64
2023/05/22 07:02:59;;;;;;;3.95;3.30;;;25.30;99.90;;;;;;5178533;28;20028;-66
2023/05/22 07:05:30;;;;;;;6.18;3.10;;;25.30;99.90;;;;;;5212860;28;20249;-67
2023/05/22 07:08:01;;;;;;;4.82;3.83;;;25.50;99.90;;;;;;5212352;28;20054;-64
2023/05/22 07:10:33;;;;;;;3.72;2.90;;;25.70;99.90;;;;;;5195958;28;20506;-66
2023/05/22 07:13:10;;;;;;;5.38;3.28;;;25.60;99.90;;;;;;5212896;28;20199;-66
2023/05/22 07:15:41;;;;;;;4.47;3.15;;;25.50;1.00;;;;;;5207687;28;20045;-68
2023/05/22 07:18:20;;;;;;;4.63;3.60;;;25.60;1.00;;;;;;5178738;28;20029;-66
2023/05/22 07:20:56;;;;;;;5.70;3.40;;;25.50;1.00;;;;;;5198141;28;20033;-64
2023/05/22 07:23:30;;;;;;;3.75;2.80;;;25.40;1.00;;;;;;5216554;28;20037;-68
2023/05/22 07:26:08;;;;;;;3.95;3.25;;;25.10;1.00;;;;;;5188236;28;20040;-67
2023/05/22 07:28:43;;;;;;;7.22;4.15;;;25.40;1.00;;;;;;5226336;28;20023;-67
2023/05/22 07:31:17;;;;;;;4.20;3.13;;;25.80;1.00;;;;;;5205313;28;20349;-66
2023/05/22 07:33:51;;;;;;;6.43;3.60;;;26.00;1.00;;;;;;5208998;28;20401;-67
2023/05/22 07:36:22;;;;;;;;;;;26.10;1.00;;;;;;5209378;28;20068;-67
2023/05/22 07:38:54;;;;;;;3.00;2.70;;;26.40;1.00;;;;;;5208711;28;20035;-68
2023/05/22 07:41:27;;;;;;;5.72;3.60;;;26.40;1.00;;;;;;5198486;28;20039;-68
2023/05/22 07:44:01;;;;;;;5.13;3.00;;;26.50;1.00;;;;;;5197387;28;20287;-66
2023/05/22 07:46:35;;;;;;;4.13;3.28;;;26.60;1.00;;;;;;5192829;28;20037;-67
2023/05/22 07:49:10;;;;;;;;;;;26.90;1.00;;;;;;5210990;28;20041;-68
2023/05/22 07:51:41;;;;;;;3.63;3.28;;;27.00;1.00;;;;;;5214050;28;20458;-67
2023/05/22 07:54:13;;;;;;;5.38;3.38;;;26.80;1.00;;;;;;5195203;28;20037;-66
2023/05/22 07:56:44;;;;;;;4.20;2.92;;;27.10;1.00;;;;;;5195108;28;20025;-66
2023/05/22 07:59:20;;;;;;;4.65;3.35;;;27.40;1.00;;;;;;5211190;28;20045;-66
2023/05/22 08:01:55;;;;;;;4.25;3.67;;;27.50;1.00;;;;;;5209747;28;20504;-64
2023/05/22 08:04:32;;;;;;;7.38;3.60;;;27.40;1.00;;;;;;5161260;28;20045;-68
2023/05/22 08:07:04;;;;;;;4.20;3.05;;;27.30;1.00;;;;;;5232058;28;20029;-64
2023/05/22 08:09:38;;;;;;;5.53;3.55;;;27.10;1.00;;;;;;5219532;28;20078;-64
2023/05/22 08:12:10;;;;;;;3.60;3.30;;;27.30;1.00;;;;;;5234452;28;20035;-66
2023/05/22 08:14:41;;;;;;;4.18;3.45;;;27.30;1.00;;;;;;5211077;28;20052;-69
2023/05/22 08:17:15;;;;;;;3.83;3.03;;;27.30;1.00;;;;;;5212356;28;20049;-67
2023/05/22 08:19:52;;;;;;;5.20;3.22;;;27.40;1.00;;;;;;5209070;28;20349;-67
2023/05/22 08:22:24;;;;;;;4.72;3.22;;;27.90;1.00;;;;;;5234590;28;20404;-67
2023/05/22 08:25:01;;;;;;;4.38;3.47;;;28.20;1.00;;;;;;5206769;28;20454;-66
2023/05/22 08:27:32;;;;;;;5.25;2.95;;;28.50;1.00;;;;;;5228585;28;20464;-66
2023/05/22 08:30:07;;;;;;;4.43;3.40;;;28.80;1.00;;;;;;5186456;28;20037;-68
2023/05/22 08:32:38;;;;;;;4.75;3.58;;;28.60;1.00;;;;;;5224805;28;20339;-66
2023/05/22 08:35:10;;;;;;;2.72;2.53;;;28.90;1.00;;;;;;5205281;28;20041;-64
2023/05/22 08:37:44;;;;;;;4.07;3.30;;;29.00;1.00;;;;;;5205864;28;20040;-68
2023/05/22 08:40:18;;;;;;;7.78;3.50;;;28.80;1.00;;;;;;5214687;28;20043;-66
2023/05/22 08:42:53;;;;;;;5.70;4.13;;;28.50;1.00;;;;;;5222864;28;20036;-65
2023/05/22 08:45:28;;;;;;;4.30;3.22;;;28.70;1.00;;;;;;5187548;28;20203;-66
2023/05/22 08:48:06;;;;;;;6.38;3.50;;;28.70;1.00;;;;;;5206756;28;20033;-66
2023/05/22 08:50:41;;;;;;;3.33;3.00;;;28.50;1.00;;;;;;5199075;28;20063;-67
2023/05/22 08:53:15;;;;;;;5.97;3.63;;;28.80;1.00;;;;;;5216689;28;20467;-66
2023/05/22 08:55:47;;;;;;;5.23;4.63;;;29.20;1.00;;;;;;5204333;28;20036;-67
2023/05/22 08:58:18;;;;;;;5.57;3.80;;;29.30;1.00;;;;;;5195503;28;20044;-65
2023/05/22 09:00:51;;;;;;;4.63;3.58;;;29.30;1.00;;;;;;5192331;28;20132;-64
2023/05/22 09:03:31;;;;;;;5.60;3.75;;;29.20;1.00;;;;;;5236125;28;20017;-64
2023/05/22 09:06:09;;;;;;;5.07;3.85;;;29.00;1.00;;;;;;5204254;28;20063;-63
2023/05/22 09:08:41;;;;;;;4.88;4.18;;;28.80;1.00;;;;;;5192367;28;20028;-68
2023/05/22 09:11:13;;;;;;;6.25;4.03;;;28.90;1.00;;;;;;5185003;28;20036;-67
2023/05/22 09:13:44;;;;;;;4.80;3.72;;;29.50;1.00;;;;;;5214044;28;20466;-68
2023/05/22 09:16:21;;;;;;;4.68;4.00;;;29.60;1.00;;;;;;5216460;28;20341;-68
2023/05/22 09:18:52;;;;;;;4.78;3.70;;;29.40;1.00;;;;;;5219919;28;20047;-67
2023/05/22 09:21:29;;;;;;;7.30;4.07;;;29.40;1.00;;;;;;5202317;28;20352;-66
2023/05/22 09:24:02;;;;;;;5.00;3.75;;;29.30;1.00;;;;;;5226137;28;20043;-63
2023/05/22 09:26:36;;;;;;;5.15;4.10;;;29.50;1.00;;;;;;5214848;28;20037;-63
2023/05/22 09:29:10;;;;;;;5.10;3.90;;;29.40;1.00;;;;;;5200828;28;20043;-63
2023/05/22 09:31:45;;;;;;;5.30;3.88;;;29.70;1.00;;;;;;5173370;28;20059;-66
2023/05/22 09:34:17;;;;;;;4.40;3.28;;;30.30;1.00;;;;;;5179840;28;20361;-67
2023/05/22 09:36:52;;;;;;;4.32;3.53;;;30.50;1.00;;;;;;5182129;28;20045;-69
2023/05/22 09:39:23;;;;;;;4.35;3.13;;;30.40;1.00;;;;;;5224055;28;20033;-69
2023/05/22 09:42:00;;;;;;;4.38;3.28;;;30.40;1.00;;;;;;5211809;28;20640;-67
2023/05/22 09:44:32;;;;;;;5.40;3.15;;;30.50;1.00;;;;;;5195786;28;20037;-68
2023/05/22 09:47:06;;;;;;;6.13;3.33;;;30.40;1.00;;;;;;5180885;28;20626;-68
2023/05/22 09:49:43;;;;;;;;;;;30.40;1.00;;;;;;5204788;28;20051;-67
2023/05/22 09:52:20;;;;;;;3.20;2.83;;;30.40;1.00;;;;;;5178389;28;21579;-67
2023/05/22 09:54:54;;;;;;;4.07;3.20;;;30.50;1.00;;;;;;5200941;28;20033;-68
2023/05/22 09:57:31;;;;;;;3.72;3.00;;;30.60;1.00;;;;;;5209559;28;20057;-69
2023/05/22 10:00:08;;;;;;;4.03;2.92;;;30.40;1.00;;;;;;5192442;28;20050;-69
2023/05/22 10:02:44;;;;;;;3.55;3.25;;;30.60;1.00;;;;;;5223107;28;20039;-68
2023/05/22 10:05:23;;;;;;;5.55;3.97;;;30.90;1.00;;;;;;5194120;28;20040;-70
2023/05/22 10:07:56;;;;;;;5.45;3.92;;;30.90;1.00;;;;;;5176489;28;20051;-66
2023/05/22 10:10:29;;;;;;;3.10;2.80;;;30.20;1.00;;;;;;5209853;28;20042;-69
2023/05/22 10:13:03;;;;;;;4.80;3.30;;;29.60;1.00;;;;;;5197658;28;20032;-66
2023/05/22 10:15:35;;;;;;;2.92;2.63;;;29.10;1.00;;;;;;5188967;28;20539;-68
2023/05/22 10:18:06;;;;;;;4.00;3.00;;;29.30;1.00;;;;;;5203949;28;20041;-68
2023/05/22 10:20:43;;;;;;;4.22;2.88;;;29.70;1.00;;;;;;5181452;28;20364;-66
2023/05/22 10:23:18;;;;;;;3.88;2.78;;;30.30;1.00;;;;;;5189465;28;20055;-66
2023/05/22 10:25:59;;;;;;;;;;;30.40;1.00;;;;;;5216937;28;20042;-67
2023/05/22 10:28:41;;;;;;;4.60;3.30;;;31.30;1.00;;;;;;5202352;28;19919;-67
2023/05/22 10:31:28;;;;;;;4.93;2.80;;;31.90;1.00;;;;;;5202079;28;20052;-68
2023/05/22 10:34:07;;;;;;;3.20;2.90;;;32.10;1.00;;;;;;5178859;28;20063;-66
2023/05/22 10:37:18;;;;;;;3.60;2.53;;;32.70;1.00;;;;;;5173137;28;20537;-68
2023/05/22 10:40:10;;;;;;;4.05;2.88;;;32.70;1.00;;;;;;5175689;28;20044;-67
2023/05/22 10:42:45;;;;;;;3.20;2.65;;;33.00;1.00;;;;;;5199543;28;20028;-70
2023/05/22 10:45:27;;;;;;;3.05;2.75;;;34.20;1.00;;;;;;5186984;28;20044;-65
2023/05/22 10:48:07;;;;;;;3.53;2.60;;;35.40;1.00;;;;;;5220564;28;20030;-66
2023/05/22 10:50:56;;;;;;;3.67;2.95;;;36.20;1.00;;;;;;5184105;28;20037;-64
2023/05/22 10:53:35;;;;;;;2.70;2.50;;;35.80;1.00;;;;;;5211960;28;20506;-69
2023/05/22 10:56:16;;;;;;;3.33;2.58;;;35.20;1.00;;;;;;5209130;28;20088;-68
2023/05/22 10:59:01;;;;;;;5.10;3.05;;;34.10;1.00;;;;;;5211446;28;20036;-69
2023/05/22 11:01:36;;;;;;;3.22;2.47;;;35.20;1.00;;;;;;5182030;28;20040;-67
2023/05/22 11:04:14;;;;;;;2.80;2.42;;;35.90;1.00;;;;;;5223844;28;20009;-66
2023/05/22 11:06:48;;;;;;;3.55;2.53;;;36.40;1.00;;;;;;5158450;28;20056;-66
2023/05/22 11:09:46;;;;;;;3.38;3.08;;;36.60;1.00;;;;;;5212566;28;20025;-66
2023/05/22 11:12:27;;;;;;;2.72;2.33;;;36.60;1.00;;;;;;5183674;28;20056;-65
2023/05/22 11:15:14;;;;;;;2.75;2.55;;;36.60;1.00;;;;;;5194122;28;20040;-68
2023/05/22 11:17:51;;;;;;;3.20;2.85;;;37.70;1.00;;;;;;5217954;28;20050;-66
2023/05/22 11:20:29;;;;;;;3.17;2.88;;;37.20;1.00;;;;;;5200545;28;20021;-65
2023/05/22 11:23:05;;;;;;;2.72;2.30;;;37.80;1.00;;;;;;5203020;28;20231;-68
2023/05/22 11:25:39;;;;;;;3.15;2.80;;;38.30;1.00;;;;;;5214100;28;20048;-66
2023/05/22 11:28:11;;;;;;;2.70;2.50;;;37.70;1.00;;;;;;5227476;28;20044;-69
2023/05/22 11:30:45;;;;;;;4.40;2.78;;;36.20;1.00;;;;;;5194947;28;20029;-69
2023/05/22 11:33:17;;;;;;;3.50;2.67;;;36.90;1.00;;;;;;5218298;28;20020;-68
2023/05/22 11:35:52;;;;;;;3.20;2.90;;;38.00;1.00;;;;;;5224565;28;20036;-66
2023/05/22 11:38:27;;;;;;;2.60;2.40;;;37.50;1.00;;;;;;5216556;28;20027;-67
2023/05/22 11:40:58;;;;;;;3.05;2.75;;;36.80;1.00;;;;;;5205687;28;20040;-70
2023/05/22 11:43:33;;;;;;;3.85;2.45;;;35.50;1.00;;;;;;5202656;28;20104;-69
2023/05/22 11:46:12;;;;;;;4.07;2.85;;;34.90;1.00;;;;;;5192844;28;20032;-67
2023/05/22 11:48:47;;;;;;;2.53;2.33;;;35.50;1.00;;;;;;5213468;28;20218;-65
2023/05/22 11:51:22;;;;;;;3.65;2.17;;;36.30;1.00;;;;;;5180195;28;20034;-66
2023/05/22 11:53:54;;;;;;;2.30;2.10;;;37.20;1.00;;;;;;5214346;28;20012;-68
2023/05/22 11:56:26;;;;;;;2.47;2.28;;;37.80;1.00;;;;;;5180615;28;20045;-66
2023/05/22 11:59:00;;;;;;;6.28;3.17;;;38.00;1.00;;;;;;5196770;28;20025;-65
2023/05/22 12:01:35;;;;;;;2.75;2.50;;;37.50;1.00;;;;;;5177794;28;20049;-65
2023/05/22 12:04:12;;;;;;;2.80;2.60;;;36.60;1.00;;;;;;5215361;28;20036;-68
2023/05/22 12:06:43;;;;;;;2.45;2.25;;;35.70;1.00;;;;;;5155270;28;20044;-66
2023/05/22 12:09:17;;;;;;;;;;;36.30;1.00;;;;;;5194706;28;20033;-68
2023/05/22 12:11:51;;;;;;;2.95;2.58;;;37.80;1.00;;;;;;5213283;28;20098;-65
2023/05/22 12:14:27;;;;;;;3.30;2.47;;;37.10;1.00;;;;;;5209732;28;20273;-68
2023/05/22 12:17:00;;;;;;;2.67;2.33;;;37.30;1.00;;;;;;5209835;28;20035;-67
2023/05/22 12:19:31;;;;;;;3.25;2.35;;;37.20;1.00;;;;;;5198739;28;20031;-69
2023/05/22 12:22:04;;;;;;;2.50;2.30;;;36.90;1.00;;;;;;5198944;28;20036;-66
2023/05/22 12:24:46;;;;;;;2.80;2.60;;;37.80;1.00;;;;;;5207709;28;20068;-67
2023/05/22 12:27:17;;;;;;;3.25;2.28;;;38.70;1.00;;;;;;5218410;28;20051;-67
2023/05/22 12:29:48;;;;;;;3.17;2.78;;;37.00;1.00;;;;;;5211463;28;20033;-68
2023/05/22 12:32:22;;;;;;;2.75;2.33;;;36.50;1.00;;;;;;5208215;28;20205;-65
2023/05/22 12:34:56;;;;;;;;;;;36.40;1.00;;;;;;5212826;28;20021;-64
2023/05/22 12:37:27;;;;;;;2.63;2.20;;;35.30;1.00;;;;;;5199087;28;20209;-67
2023/05/22 12:40:03;;;;;;;2.35;2.15;;;36.60;1.00;;;;;;5212348;28;20050;-66
2023/05/22 12:42:37;;;;;;;2.80;2.60;;;36.40;1.00;;;;;;5203325;28;20041;-68
2023/05/22 12:45:12;;;;;;;3.50;2.47;;;37.30;1.00;;;;;;5160190;28;20035;-69
2023/05/22 12:47:44;;;;;;;2.60;2.38;;;38.50;1.00;;;;;;5201502;28;20035;-66
2023/05/22 12:50:16;;;;;;;2.90;2.60;;;40.00;1.00;;;;;;5187549;28;20040;-66
2023/05/22 12:52:47;;;;;;;2.63;2.45;;;40.40;1.00;;;;;;5191669;28;20021;-67
2023/05/22 12:55:23;;;;;;;3.15;2.80;;;41.70;1.00;;;;;;5180090;28;20048;-67
2023/05/22 12:57:55;;;;;;;2.70;2.50;;;41.60;1.00;;;;;;5222161;28;20433;-68
2023/05/22 13:00:32;;;;;;;3.13;2.92;;;40.50;1.00;;;;;;5213793;28;20037;-66
2023/05/22 13:03:05;;;;;;;2.80;2.60;;;40.20;1.00;;;;;;5195141;28;20033;-67
2023/05/22 13:05:39;;;;;;;3.00;2.70;;;39.60;1.00;;;;;;5203627;28;20387;-68
2023/05/22 13:08:10;;;;;;;2.50;2.30;;;38.00;1.00;;;;;;5211761;28;20467;-67
2023/05/22 13:10:44;;;;;;;2.92;2.60;;;37.80;1.00;;;;;;5191754;28;20025;-64
2023/05/22 13:13:18;;;;;;;3.30;2.55;;;38.80;1.00;;;;;;5188287;28;20025;-68
2023/05/22 13:15:55;;;;;;;3.50;3.00;;;39.80;1.00;;;;;;5189929;28;20045;-66
2023/05/22 13:18:27;;;;;;;4.85;2.83;;;39.00;1.00;;;;;;5178995;28;20027;-67
2023/05/22 13:21:01;;;;;;;2.88;2.58;;;39.50;1.00;;;;;;5209133;28;20029;-66
2023/05/22 13:23:32;;;;;;;2.95;2.75;;;40.30;1.00;;;;;;5214463;28;20048;-69
2023/05/22 13:26:06;;;;;;;2.78;2.38;;;40.30;1.00;;;;;;5187229;28;20037;-66
2023/05/22 13:28:40;;;;;;;3.10;2.60;;;40.60;1.00;;;;;;5196993;28;20048;-67
2023/05/22 13:31:11;;;;;;;4.88;2.90;;;40.00;1.00;;;;;;5220471;28;20032;-68
2023/05/22 13:33:45;;;;;;;3.05;2.75;;;40.40;1.00;;;;;;5211273;28;20033;-67
2023/05/22 13:36:17;;;;;;;2.95;2.70;;;40.90;1.00;;;;;;5178746;28;20047;-67